Ashford, CT

11:00 PM EDT on September 14, 2014 (GMT -0400)
Gurleyville Green | Change Station
CLOSE
Current Station
Personal Weather Station
Location: Storrs Mansfield, CT
Elevation: 354 ft
Nearby Weather Stations

Elev 354 ft 41.82 °N, 72.22 °W | Updated 0 second ago

Clear
Clear
46.5 °F
Feels Like 46 °F
N
0.0
Wind Variable Wind from NW
Gusts 0.0 mph

Today
High -- | Low -- °F
--% Chance of Precip.
Yesterday
High -- | Low -- °F
Precip. -- in
6:27 AM 7:00 PM
Waning Gibbous, 60% visible
Pressure 30.21 in
Visibility 10.0 miles
Clouds Clear
Windchill 46 °F
Dew Point 45 °F
Humidity 94%
Rainfall 0.28 in
Snow Depth Not available.
UV 0 out of 12
Pollen 3.30 out of 12
Ozone Good
Flu Activity Not available.
METAR KIJD 150252Z AUTO 35003KT 10SM CLR 09/08 A3021 RMK AO2 SLP230 T00940083 53001

More Conditions Fewer Conditions

Pressure 30.21 in
Visibility 10.0 miles
Clouds Clear
Windchill 46 °F
Dew Point 45 °F
Humidity 94%
Rainfall 0.28 in
Snow Depth Not available.
UV 0 out of 12
Pollen 3.30 out of 12
Ozone Good
Flu Activity Not available.
METAR KIJD 150252Z AUTO 35003KT 10SM CLR 09/08 A3021 RMK AO2 SLP230 T00940083 53001

More Conditions Fewer Conditions

10-Day Weather Forecast

Almanac

Astronomy

Sep. 14, 2014 Rise Set
Actual Time 6:27 AM EDT 7:00 PM EDT
Civil Twilight 5:59 AM EDT 7:27 PM EDT
Nautical Twilight 5:26 AM EDT 8:00 PM EDT
Astronomical Twilight 4:52 AM EDT 8:34 PM EDT
Moon 10:45 PM EDT (9/14) 12:36 PM EDT (9/14)
Length of Visible Light 13h 27m
Length of Day
12h 32m
Tomorrow will be 2m 46s shorter.
Waning Gibbous, 60% of the Moon is Illuminated
Today
Waning Gibbous
Sep 15
Last Quarter
Sep 24
New
Oct 1
First Quarter
Oct 8
Full

Today's Extremes

State Highs State Lows

Community

WunderPhotos

Upload Photos

1,753,388 photos uploaded!

Nearby

Air Quality

  Air Quality AQ Index Pollutant
Yesterday Good
OZONE
Current Good
OZONE

Snow Depth

Station Depth Elevation
No new snow has been reported.

Earthquake Activity

City Distance Mag. Time & Date
No recent earthquake activity has been reported nearby.
Minimum magnitude displayed is 2.5.

Coastal Water Temperatures

Place Temperature
New London, CT 69.1 °F
Newport, RI 68.0 °F
Quonset Point, RI 70.0 °F
Conimicut Light, RI 70.0 °F
Providence, RI 70.0 °F

Nearby Weather Stations